Time;durP1;ratioP1;P1;durP2;ratioP2;P2;SDS_P1;SDS_P2;PMS_P1;PMS_P2;Temp;Humidity;BMP_temperature;BMP_pressure;BME280_temperature;BME280_humidity;BME280_pressure;Samples;Min_cycle;Max_cycle;Signal;HPM_P1;HPM_P2
2022/07/12 00:00:26;;;;;;;;;4.67;4.67;;;;;27.86;47.13;101947.75;5043002;28;45650;-66
2022/07/12 00:02:52;;;;;;;;;6.00;5.00;;;;;27.89;46.92;101944.50;5054464;28;45306;-66
2022/07/12 00:05:17;;;;;;;;;5.67;5.67;;;;;27.82;47.32;101938.13;5052042;28;45527;-66
2022/07/12 00:07:42;;;;;;;;;4.33;4.33;;;;;27.84;46.40;101935.09;5045009;28;45545;-66
2022/07/12 00:10:08;;;;;;;;;2.67;2.67;;;;;27.68;47.46;101936.59;5054585;28;45349;-65
2022/07/12 00:12:33;;;;;;;;;4.67;4.67;;;;;27.64;47.99;101935.34;5043042;28;45344;-66
2022/07/12 00:14:59;;;;;;;;;3.67;3.33;;;;;27.47;48.78;101920.25;5045142;28;45228;-66
2022/07/12 00:17:24;;;;;;;;;3.00;3.00;;;;;27.54;48.18;101934.19;5060608;28;45652;-66
2022/07/12 00:19:50;;;;;;;;;3.00;3.00;;;;;27.47;48.68;101928.59;5039765;28;46716;-66
2022/07/12 00:22:16;;;;;;;;;4.67;4.67;;;;;27.47;48.15;101934.19;5042913;28;45683;-66
2022/07/12 00:24:41;;;;;;;;;4.00;4.00;;;;;27.45;48.55;101941.97;5054071;28;45308;-67
2022/07/12 00:27:06;;;;;;;;;4.00;4.00;;;;;27.44;48.55;101945.84;5049191;28;45426;-67
2022/07/12 00:29:32;;;;;;;;;0.67;0.67;;;;;27.44;49.04;101937.47;5052750;28;45508;-66
2022/07/12 00:31:57;;;;;;;;;4.00;4.00;;;;;27.40;48.72;101928.69;5042736;28;45307;-67
2022/07/12 00:34:22;;;;;;;;;4.67;4.00;;;;;27.41;48.89;101923.97;5038368;28;45526;-66
2022/07/12 00:36:48;;;;;;;;;3.33;3.00;;;;;27.33;48.82;101932.63;5043518;28;45426;-66
2022/07/12 00:39:13;;;;;;;;;4.00;3.00;;;;;27.27;48.89;101926.03;5041932;28;46472;-66
2022/07/12 00:41:38;;;;;;;;;4.00;3.00;;;;;27.22;49.73;101933.41;5042650;28;45427;-66
2022/07/12 00:44:04;;;;;;;;;3.67;3.67;;;;;27.18;50.13;101926.59;5051896;28;45698;-66
2022/07/12 00:46:31;;;;;;;;;6.00;4.67;;;;;27.06;50.62;101930.13;5048999;28;45440;-66
2022/07/12 00:48:56;;;;;;;;;6.67;4.00;;;;;26.99;50.96;101926.53;5056435;28;45535;-66
2022/07/12 00:51:22;;;;;;;;;4.00;4.00;;;;;27.00;51.11;101927.38;5054916;28;45239;-66
2022/07/12 00:53:50;;;;;;;;;5.00;3.00;;;;;26.99;50.26;101914.53;5049392;28;45476;-66
2022/07/12 00:56:15;;;;;;;;;5.00;3.00;;;;;26.99;50.63;101920.97;5047129;28;45237;-66
2022/07/12 00:58:43;;;;;;;;;3.67;3.67;;;;;26.93;51.13;101921.88;5049305;28;45315;-67
2022/07/12 01:01:09;;;;;;;;;5.00;5.00;;;;;26.86;51.69;101915.47;5045774;28;45399;-69
2022/07/12 01:03:35;;;;;;;;;5.00;5.00;;;;;26.77;51.79;101915.97;5052285;28;45341;-66
2022/07/12 01:06:01;;;;;;;;;3.33;3.33;;;;;26.73;51.86;101910.00;5048849;28;45566;-65
2022/07/12 01:08:27;;;;;;;;;3.33;3.33;;;;;26.72;52.02;101913.88;5043860;28;46497;-66
2022/07/12 01:10:54;;;;;;;;;5.00;5.00;;;;;26.66;51.93;101909.22;5050428;28;45280;-66
2022/07/12 01:13:19;;;;;;;;;4.00;4.00;;;;;26.71;51.90;101915.81;5043129;28;45411;-66
2022/07/12 01:15:47;;;;;;;;;4.00;4.00;;;;;26.65;51.83;101907.50;5031642;28;45398;-66
2022/07/12 01:18:13;;;;;;;;;4.67;4.67;;;;;26.54;52.89;101917.44;5044301;28;45402;-66
2022/07/12 01:20:39;;;;;;;;;4.67;4.00;;;;;26.52;52.01;101927.13;5053030;28;45296;-65
2022/07/12 01:23:05;;;;;;;;;4.00;4.00;;;;;26.51;52.49;101922.63;5061249;28;45494;-65
2022/07/12 01:25:30;;;;;;;;;5.00;3.67;;;;;26.47;53.24;101924.13;5059056;28;45264;-66
2022/07/12 01:27:57;;;;;;;;;4.00;4.00;;;;;26.43;53.28;101928.47;5044484;28;46206;-66
2022/07/12 01:30:22;;;;;;;;;4.00;4.00;;;;;26.40;53.45;101915.81;5055297;28;45157;-66
2022/07/12 01:32:48;;;;;;;;;5.00;5.00;;;;;26.38;53.46;101912.38;5043653;28;45557;-65
2022/07/12 01:35:13;;;;;;;;;4.00;4.00;;;;;26.38;53.70;101911.53;5040175;28;45239;-66
2022/07/12 01:37:41;;;;;;;;;4.67;4.67;;;;;26.40;52.70;101917.75;5044406;28;47219;-65
2022/07/12 01:40:12;;;;;;;;;4.00;4.00;;;;;26.35;53.47;101910.06;5053021;28;45526;-66
2022/07/12 01:42:39;;;;;;;;;3.33;3.00;;;;;26.26;54.05;101915.06;5045527;28;45372;-66
2022/07/12 01:45:06;;;;;;;;;5.67;5.67;;;;;26.18;54.03;101906.91;5052407;28;45327;-66
2022/07/12 01:47:32;;;;;;;;;3.67;3.67;;;;;26.14;54.16;101916.81;5044765;28;46172;-66
2022/07/12 01:49:59;;;;;;;;;5.00;4.00;;;;;26.15;54.35;101909.31;5044270;28;45443;-66
2022/07/12 01:52:25;;;;;;;;;4.00;4.00;;;;;26.14;54.26;101922.38;5045581;28;45374;-65
2022/07/12 01:54:50;;;;;;;;;6.33;5.00;;;;;26.13;54.30;101914.25;5053708;28;45312;-66
2022/07/12 01:57:16;;;;;;;;;5.00;4.00;;;;;26.10;54.58;101921.09;5045394;28;46205;-66
2022/07/12 01:59:41;;;;;;;;;5.00;5.00;;;;;26.15;53.71;101917.66;5053180;28;45327;-66
2022/07/12 02:02:07;;;;;;;;;5.00;5.00;;;;;26.12;54.31;101910.59;5051723;28;45263;-66
2022/07/12 02:04:33;;;;;;;;;5.00;4.00;;;;;26.12;54.65;101918.97;5055676;28;45218;-66
2022/07/12 02:06:58;;;;;;;;;6.00;4.67;;;;;26.08;54.17;101912.09;5045025;28;45257;-66
2022/07/12 02:09:24;;;;;;;;;7.00;4.00;;;;;26.10;54.38;101918.31;5054803;28;45168;-66
2022/07/12 02:11:49;;;;;;;;;6.00;6.00;;;;;26.05;54.91;101912.56;5044995;28;45424;-66
2022/07/12 02:14:16;;;;;;;;;6.33;5.00;;;;;26.02;54.48;101917.72;5045716;28;45473;-65
2022/07/12 02:16:42;;;;;;;;;3.00;3.00;;;;;26.00;54.55;101917.97;5044703;28;45269;-66
2022/07/12 02:19:10;;;;;;;;;4.33;4.33;;;;;25.96;54.87;101911.13;5052305;28;45389;-66
2022/07/12 02:21:35;;;;;;;;;6.00;4.33;;;;;25.85;55.28;101917.38;5049185;28;45930;-66
2022/07/12 02:24:01;;;;;;;;;5.00;5.00;;;;;25.77;55.90;101909.28;5049245;28;45266;-66
2022/07/12 02:26:27;;;;;;;;;4.67;4.00;;;;;25.74;56.09;101910.56;5047522;28;45685;-66
2022/07/12 02:28:53;;;;;;;;;3.00;3.00;;;;;25.74;55.28;101915.28;5051227;28;45398;-66
2022/07/12 02:31:18;;;;;;;;;4.00;4.00;;;;;25.73;55.16;101913.56;5044590;28;45308;-66
2022/07/12 02:33:43;;;;;;;;;5.33;5.00;;;;;25.66;56.08;101918.31;5051693;28;45236;-66
2022/07/12 02:36:09;;;;;;;;;5.00;5.00;;;;;25.56;56.35;101914.03;5044226;28;45764;-66
2022/07/12 02:38:34;;;;;;;;;7.00;5.00;;;;;25.57;56.22;101921.28;5051931;28;45278;-66
2022/07/12 02:41:00;;;;;;;;;5.00;5.00;;;;;25.47;57.36;101909.78;5044570;28;45549;-66
2022/07/12 02:43:27;;;;;;;;;7.00;7.00;;;;;25.38;57.49;101907.44;5051874;28;45369;-66
2022/07/12 02:45:56;;;;;;;;;6.00;6.00;;;;;25.26;58.66;101921.19;5043408;28;46660;-66
2022/07/12 02:48:22;;;;;;;;;4.33;4.33;;;;;25.14;58.74;101922.88;5050035;28;45280;-66
2022/07/12 02:50:48;;;;;;;;;4.67;4.67;;;;;25.20;58.49;101916.50;5047113;28;45348;-66
2022/07/12 02:53:13;;;;;;;;;4.00;4.00;;;;;25.20;57.85;101920.09;5064121;28;45292;-66
2022/07/12 02:55:39;;;;;;;;;5.00;5.00;;;;;25.20;58.93;101920.09;5045662;28;46293;-66
2022/07/12 02:58:07;;;;;;;;;5.00;5.00;;;;;25.14;58.71;101920.13;5046509;28;45292;-66
2022/07/12 03:00:34;;;;;;;;;4.33;4.33;;;;;25.19;57.71;101923.13;5053083;28;45387;-66
2022/07/12 03:03:00;;;;;;;;;6.33;4.67;;;;;25.25;57.63;101925.03;5054334;28;45369;-66
2022/07/12 03:05:25;;;;;;;;;6.00;6.00;;;;;25.21;59.12;101934.88;5050376;28;46317;-66
2022/07/12 03:07:50;;;;;;;;;6.33;6.00;;;;;25.15;59.42;101939.38;5029941;28;45712;-66
2022/07/12 03:10:16;;;;;;;;;7.00;7.00;;;;;25.05;59.13;101940.91;5039841;28;45386;-66
2022/07/12 03:12:41;;;;;;;;;7.67;6.00;;;;;25.08;58.94;101930.19;5045010;28;45400;-66
2022/07/12 03:15:07;;;;;;;;;5.33;5.33;;;;;25.10;58.51;101930.81;5052849;28;45401;-66
2022/07/12 03:17:33;;;;;;;;;8.33;6.67;;;;;25.03;59.81;101940.25;5043661;28;45503;-65
2022/07/12 03:19:59;;;;;;;;;6.67;6.67;;;;;25.05;59.12;101949.25;5056673;28;45428;-66
2022/07/12 03:22:24;;;;;;;;;5.33;5.33;;;;;25.03;59.57;101931.91;5044443;28;45605;-66
2022/07/12 03:24:50;;;;;;;;;10.33;9.00;;;;;25.03;59.16;101929.97;5058128;28;45502;-66
2022/07/12 03:27:15;;;;;;;;;7.00;7.00;;;;;25.01;59.86;101931.25;5042678;28;45643;-66
2022/07/12 03:29:41;;;;;;;;;7.00;7.00;;;;;24.90;60.05;101926.31;5053557;28;45404;-66
2022/07/12 03:32:07;;;;;;;;;5.00;5.00;;;;;24.87;60.59;101923.97;5044038;28;45248;-66
2022/07/12 03:34:32;;;;;;;;;7.00;7.00;;;;;24.82;60.94;101933.81;5047444;28;45442;-66
2022/07/12 03:36:58;;;;;;;;;6.00;6.00;;;;;24.78;61.38;101934.44;5045430;28;45405;-67
2022/07/12 03:39:23;;;;;;;;;7.00;7.00;;;;;24.67;61.57;101941.50;5052554;28;45429;-66
2022/07/12 03:41:49;;;;;;;;;5.00;5.00;;;;;24.75;60.12;101932.09;5043903;28;45447;-65
2022/07/12 03:44:14;;;;;;;;;9.33;7.00;;;;;24.71;61.52;101942.75;5034210;28;46613;-66
2022/07/12 03:46:40;;;;;;;;;9.00;8.00;;;;;24.66;60.68;101939.78;5044279;28;45544;-66
2022/07/12 03:49:05;;;;;;;;;8.67;6.67;;;;;24.59;61.92;101955.59;5047350;28;45459;-66
2022/07/12 03:51:30;;;;;;;;;8.33;7.67;;;;;24.58;61.62;101953.88;5045501;28;45446;-66
2022/07/12 03:53:56;;;;;;;;;7.00;7.00;;;;;24.62;61.27;101959.88;5048091;28;45425;-66
2022/07/12 03:59:05;;;;;;;;;9.33;9.33;;;;;24.55;62.36;101948.72;5049740;28;45560;-66
2022/07/12 04:01:31;;;;;;;;;9.00;8.00;;;;;24.47;62.72;101959.22;5046909;28;45349;-66
2022/07/12 04:03:56;;;;;;;;;7.67;7.67;;;;;24.36;62.38;101960.66;5052781;28;45384;-65
2022/07/12 04:06:22;;;;;;;;;8.67;8.67;;;;;24.34;63.21;101971.97;5043109;28;45313;-67
2022/07/12 04:08:47;;;;;;;;;10.00;10.00;;;;;24.38;62.58;101967.75;5049621;28;45785;-66
2022/07/12 04:11:13;;;;;;;;;10.00;8.67;;;;;24.32;63.65;101967.72;5043142;28;45636;-66
2022/07/12 04:13:38;;;;;;;;;9.00;9.00;;;;;24.40;63.00;101973.91;5050827;28;45357;-66
2022/07/12 04:16:05;;;;;;;;;9.00;8.33;;;;;24.47;61.60;101971.19;5043595;28;45362;-66
2022/07/12 04:18:30;;;;;;;;;6.33;6.33;;;;;24.45;61.64;101962.19;5049883;28;45484;-66
2022/07/12 04:20:56;;;;;;;;;8.00;8.00;;;;;24.43;62.52;101967.09;5046736;28;45311;-66
2022/07/12 04:23:21;;;;;;;;;10.00;10.00;;;;;24.41;62.66;101972.00;5059613;28;45421;-65
2022/07/12 04:25:46;;;;;;;;;6.00;6.00;;;;;24.32;63.22;101976.06;5055867;28;45379;-66
2022/07/12 04:28:12;;;;;;;;;8.33;8.33;;;;;24.31;62.79;101968.78;5054247;28;45406;-65
2022/07/12 04:30:37;;;;;;;;;10.00;10.00;;;;;24.33;63.25;101966.63;5047779;28;45648;-66
2022/07/12 04:33:02;;;;;;;;;8.00;7.00;;;;;24.35;63.27;101970.06;5045941;28;45506;-66
2022/07/12 04:35:28;;;;;;;;;8.33;7.33;;;;;24.41;61.84;101972.00;5048297;28;45398;-67
2022/07/12 04:37:53;;;;;;;;;11.00;9.00;;;;;24.38;62.85;101972.44;5029858;28;45607;-66
2022/07/12 04:40:19;;;;;;;;;13.33;8.33;;;;;24.42;62.70;101979.25;5047686;28;45416;-67
2022/07/12 04:42:44;;;;;;;;;9.67;9.67;;;;;24.42;62.65;101968.16;5042998;28;45398;-67
2022/07/12 04:45:09;;;;;;;;;8.67;8.67;;;;;24.46;61.25;101976.94;5041885;28;45439;-69
2022/07/12 04:47:36;;;;;;;;;7.33;7.33;;;;;24.49;62.76;101976.50;5042369;28;45319;-68
2022/07/12 04:50:08;;;;;;;;;8.33;8.33;;;;;24.50;62.13;101978.22;5043768;28;45528;-69
2022/07/12 04:52:34;;;;;;;;;6.33;6.33;;;;;24.57;61.84;101985.50;5041773;28;45453;-68
2022/07/12 04:55:00;;;;;;;;;11.33;9.00;;;;;24.66;61.20;101978.69;5038173;28;45327;-68
2022/07/12 04:57:26;;;;;;;;;9.00;8.00;;;;;24.75;61.13;101985.75;5054373;28;45434;-68
2022/07/12 04:59:52;;;;;;;;;7.67;7.00;;;;;24.92;60.16;101977.88;5045851;28;45523;-67
2022/07/12 05:02:17;;;;;;;;;11.33;9.67;;;;;25.17;59.48;101997.56;5038960;28;46961;-67
2022/07/12 05:04:42;;;;;;;;;8.67;8.00;;;;;25.21;59.94;101988.56;5056040;28;45389;-66
2022/07/12 05:07:08;;;;;;;;;8.00;8.00;;;;;25.53;58.06;101978.47;5033315;28;45494;-66
2022/07/12 05:09:34;;;;;;;;;8.67;8.67;;;;;25.83;57.07;101986.34;5049503;28;45269;-67
2022/07/12 05:11:59;;;;;;;;;8.33;8.33;;;;;25.89;57.07;101991.03;5044247;28;46000;-67
2022/07/12 05:14:24;;;;;;;;;7.00;7.00;;;;;25.93;56.63;101993.19;5036960;28;45360;-67
2022/07/12 05:16:50;;;;;;;;;9.00;7.33;;;;;26.00;55.92;101998.72;5050508;28;45535;-67
2022/07/12 05:19:15;;;;;;;;;11.33;8.67;;;;;26.05;56.22;102007.28;5058204;28;45365;-67
2022/07/12 05:21:42;;;;;;;;;10.00;10.00;;;;;26.10;56.20;102001.88;5044773;28;45316;-66
2022/07/12 05:24:07;;;;;;;;;15.67;10.33;;;;;26.20;55.86;102001.44;5054539;28;45294;-68
2022/07/12 05:26:32;;;;;;;;;6.33;6.33;;;;;26.24;55.09;102008.25;5054309;28;45374;-68
2022/07/12 05:28:58;;;;;;;;;9.67;7.00;;;;;26.37;54.46;102011.03;5055275;28;45551;-68
2022/07/12 05:31:24;;;;;;;;;11.00;9.00;;;;;26.46;54.16;102009.66;5044550;28;46084;-67
2022/07/12 05:33:49;;;;;;;;;12.00;11.33;;;;;26.73;53.95;102015.97;5036746;28;45332;-68
2022/07/12 05:36:15;;;;;;;;;9.00;9.00;;;;;26.71;53.77;102021.75;5048736;28;45313;-68
2022/07/12 05:38:40;;;;;;;;;8.00;8.00;;;;;26.79;53.29;102020.63;5053180;28;45291;-68
2022/07/12 05:41:05;;;;;;;;;10.67;9.33;;;;;26.79;53.58;102019.78;5043490;28;46499;-68
2022/07/12 05:43:31;;;;;;;;;11.33;11.33;;;;;26.82;53.62;102019.31;5032267;28;45378;-66
2022/07/12 05:45:56;;;;;;;;;11.33;11.00;;;;;26.89;52.86;102031.28;5051238;28;45443;-67
2022/07/12 05:48:22;;;;;;;;;11.00;10.00;;;;;26.73;53.78;102015.97;5044082;28;45375;-69
2022/07/12 05:50:47;;;;;;;;;7.33;7.00;;;;;26.82;53.05;102020.16;5043804;28;46027;-68
2022/07/12 05:53:22;;;;;;;;;12.00;9.00;;;;;26.90;52.29;102022.72;5045814;28;45295;-67
2022/07/12 05:55:51;;;;;;;;;11.33;11.33;;;;;26.93;52.43;102025.06;5028670;28;45479;-68
2022/07/12 05:58:17;;;;;;;;;9.00;9.00;;;;;27.05;52.21;102028.81;5027179;28;45594;-68
2022/07/12 06:00:43;;;;;;;;;9.00;9.00;;;;;27.09;51.80;102038.47;5052143;28;46151;-67
2022/07/12 06:03:08;;;;;;;;;9.33;9.00;;;;;27.12;51.71;102032.41;5042675;28;46216;-67
2022/07/12 06:05:34;;;;;;;;;5.00;5.00;;;;;27.21;51.25;102043.31;5040700;28;45442;-68
2022/07/12 06:07:59;;;;;;;;;10.33;8.00;;;;;27.36;50.66;102032.66;5051224;28;45401;-67
2022/07/12 06:10:25;;;;;;;;;9.67;9.67;;;;;28.31;48.40;102042.44;5056061;28;45521;-67
2022/07/12 06:12:50;;;;;;;;;8.33;8.33;;;;;29.07;46.76;102036.19;5044500;28;45433;-68
2022/07/12 06:15:16;;;;;;;;;10.00;8.67;;;;;29.19;45.90;102044.59;5045821;28;45442;-67
2022/07/12 06:17:41;;;;;;;;;8.00;8.00;;;;;28.74;46.60;102047.84;5044640;28;45531;-67
2022/07/12 06:20:07;;;;;;;;;11.00;10.00;;;;;28.52;47.05;102033.53;5049093;28;46442;-66
2022/07/12 06:22:32;;;;;;;;;6.33;6.33;;;;;28.35;47.67;102040.84;5030549;28;45332;-66
2022/07/12 06:24:58;;;;;;;;;8.00;8.00;;;;;28.28;48.01;102049.31;5043938;28;46268;-67
2022/07/12 06:27:23;;;;;;;;;10.00;8.67;;;;;28.28;47.86;102042.88;5046303;28;45371;-67
2022/07/12 06:29:48;;;;;;;;;10.00;9.00;;;;;28.30;47.31;102040.72;5044032;28;47085;-67
2022/07/12 06:32:17;;;;;;;;;10.00;9.00;;;;;28.30;47.39;102045.44;5042835;28;45418;-68
2022/07/12 06:34:43;;;;;;;;;9.67;9.00;;;;;28.30;47.42;102046.31;5034468;28;45306;-68
2022/07/12 06:37:08;;;;;;;;;9.00;9.00;;;;;28.31;47.48;102047.16;5037732;28;45394;-66
2022/07/12 06:39:37;;;;;;;;;14.67;10.33;;;;;28.20;48.28;102046.84;5049531;28;46116;-68
2022/07/12 06:42:05;;;;;;;;;9.67;9.67;;;;;28.07;48.19;102043.31;5036989;28;45390;-68
2022/07/12 06:44:31;;;;;;;;;10.00;10.00;;;;;27.82;49.17;102047.06;5049317;28;45232;-68
2022/07/12 06:46:58;;;;;;;;;10.00;8.67;;;;;27.77;49.05;102040.44;5025323;28;45591;-67
2022/07/12 06:49:24;;;;;;;;;8.67;8.33;;;;;27.96;48.66;102049.69;5040402;28;47563;-68
2022/07/12 06:51:49;;;;;;;;;9.33;9.33;;;;;27.98;48.87;102041.94;5042895;28;45330;-68
2022/07/12 06:54:14;;;;;;;;;11.00;9.00;;;;;28.01;48.69;102052.66;5051646;28;46201;-68
2022/07/12 06:56:41;;;;;;;;;9.33;9.33;;;;;28.13;48.42;102050.78;5060215;28;46248;-68
2022/07/12 06:59:10;;;;;;;;;11.33;11.00;;;;;28.20;48.11;102051.59;5054988;28;45972;-68
2022/07/12 07:01:36;;;;;;;;;9.33;8.67;;;;;28.10;48.40;102049.31;5027450;28;45399;-66
2022/07/12 07:04:01;;;;;;;;;9.00;8.67;;;;;27.97;49.03;102051.41;5040199;28;45269;-67
2022/07/12 07:06:27;;;;;;;;;11.67;8.67;;;;;28.10;49.27;102049.31;5046760;28;45350;-66
2022/07/12 07:08:52;;;;;;;;;9.67;8.67;;;;;28.31;48.06;102053.59;5034080;28;47038;-68
2022/07/12 07:11:17;;;;;;;;;11.33;9.67;;;;;28.43;47.56;102054.50;5047086;28;45520;-68
2022/07/12 07:13:42;;;;;;;;;12.00;12.00;;;;;28.40;47.88;102046.63;5055963;28;45388;-66
2022/07/12 07:16:08;;;;;;;;;12.75;12.75;;;;;28.28;48.21;102052.13;5047884;28;45354;-69
2022/07/12 07:18:33;;;;;;;;;12.67;12.33;;;;;28.23;48.45;102057.56;5045300;28;45600;-67
2022/07/12 07:20:58;;;;;;;;;8.33;7.33;;;;;28.47;48.15;102058.56;5046068;28;45433;-66
2022/07/12 07:23:24;;;;;;;;;9.33;9.33;;;;;28.74;47.14;102058.19;5042157;28;45289;-66
2022/07/12 07:25:49;;;;;;;;;12.00;12.00;;;;;28.74;46.86;102058.19;5046966;28;45587;-66
2022/07/12 07:28:14;;;;;;;;;9.33;9.33;;;;;28.46;47.29;102065.25;5037422;28;47439;-67
2022/07/12 07:30:52;;;;;;;;;13.67;9.67;;;;;28.80;46.52;102057.25;5050149;28;46471;-67
2022/07/12 07:33:17;;;;;;;;;11.33;11.33;;;;;29.08;46.24;102070.63;5043584;28;45311;-67
2022/07/12 07:35:43;;;;;;;;;10.67;10.67;;;;;29.05;46.44;102060.75;5050290;28;45300;-67
2022/07/12 07:38:09;;;;;;;;;10.00;9.33;;;;;29.12;46.34;102057.84;5045940;28;45378;-66
2022/07/12 07:40:35;;;;;;;;;12.33;9.33;;;;;29.32;44.95;102064.81;5049818;28;45526;-67
2022/07/12 07:43:00;;;;;;;;;13.33;10.00;;;;;29.11;45.77;102057.00;5044555;28;45245;-68
2022/07/12 07:45:25;;;;;;;;;14.67;11.00;;;;;29.21;45.80;102065.66;5046357;28;45329;-68
2022/07/12 07:47:51;;;;;;;;;10.00;10.00;;;;;29.38;44.85;102066.69;5044073;28;47356;-68
2022/07/12 07:50:16;;;;;;;;;14.67;10.33;;;;;29.64;44.10;102064.53;5039480;28;45261;-67
2022/07/12 07:52:42;;;;;;;;;9.33;9.00;;;;;29.78;43.60;102068.78;5043260;28;45335;-67
2022/07/12 07:55:07;;;;;;;;;11.00;10.00;;;;;29.92;43.40;102067.44;5046687;28;45631;-68
2022/07/12 07:57:33;;;;;;;;;11.33;9.33;;;;;29.76;43.17;102074.63;5037405;28;45409;-68
2022/07/12 07:59:58;;;;;;;;;13.33;11.00;;;;;29.68;43.29;102077.78;5040516;28;45490;-67
2022/07/12 08:02:23;;;;;;;;;11.00;9.33;;;;;29.81;43.29;102066.34;5057053;28;45294;-68
2022/07/12 08:04:49;;;;;;;;;10.67;10.00;;;;;29.67;43.55;102069.63;5053213;28;45470;-67
2022/07/12 08:07:14;;;;;;;;;14.00;10.33;;;;;29.63;43.90;102055.28;5033482;28;47143;-68
2022/07/12 08:09:40;;;;;;;;;7.33;7.33;;;;;30.07;42.81;102069.78;5050827;28;49847;-69
2022/07/12 08:12:05;;;;;;;;;16.00;13.67;;;;;30.28;42.27;102057.06;5043058;28;45307;-68
2022/07/12 08:14:30;;;;;;;;;10.00;8.33;;;;;30.11;41.83;102073.78;5054585;28;45425;-68
2022/07/12 08:16:56;;;;;;;;;10.00;9.00;;;;;30.35;41.75;102066.16;5042483;28;49374;-67
2022/07/12 08:19:21;;;;;;;;;10.00;10.00;;;;;30.67;41.31;102069.41;5051434;28;45446;-68
2022/07/12 08:21:47;;;;;;;;;8.00;8.00;;;;;30.82;40.17;102073.38;5044012;28;45451;-68
2022/07/12 08:24:12;;;;;;;;;12.33;12.00;;;;;30.75;40.08;102069.88;5058533;28;45473;-67
2022/07/12 08:26:37;;;;;;;;;10.00;8.00;;;;;30.68;40.51;102071.97;5043934;28;45648;-68
2022/07/12 08:29:03;;;;;;;;;12.00;8.00;;;;;30.65;40.46;102074.41;5034361;28;45798;-66
2022/07/12 08:31:28;;;;;;;;;10.67;10.67;;;;;30.21;40.97;102065.59;5042473;28;45229;-67
2022/07/12 08:33:54;;;;;;;;;8.00;8.00;;;;;30.31;41.44;102064.97;5032864;28;45324;-66
2022/07/12 08:36:19;;;;;;;;;14.67;9.33;;;;;30.71;40.60;102065.84;5041846;28;46259;-67
2022/07/12 08:38:44;;;;;;;;;9.33;8.00;;;;;30.51;39.60;102068.25;5045994;28;45194;-66
2022/07/12 08:41:14;;;;;;;;;14.33;13.00;;;;;30.69;40.08;102067.19;5043605;28;45299;-67
2022/07/12 08:43:40;;;;;;;;;7.33;7.33;;;;;31.01;39.38;102064.72;5046095;28;45515;-67
2022/07/12 08:46:10;;;;;;;;;11.00;8.00;;;;;31.22;39.04;102067.66;5043796;28;45587;-66
2022/07/12 08:48:37;;;;;;;;;8.00;6.33;;;;;31.48;38.47;102068.97;5046017;28;45383;-67
2022/07/12 08:51:03;;;;;;;;;9.33;6.33;;;;;31.74;38.84;102069.38;5043267;28;45329;-67
2022/07/12 08:53:29;;;;;;;;;6.33;6.33;;;;;31.98;37.00;102073.69;5048641;28;45508;-67
2022/07/12 08:55:55;;;;;;;;;6.33;6.33;;;;;32.24;36.95;102064.53;5042106;28;46473;-67
2022/07/12 08:58:20;;;;;;;;;9.33;7.67;;;;;32.34;35.09;102064.66;5032566;28;45369;-68
2022/07/12 09:00:46;;;;;;;;;6.00;6.00;;;;;32.48;35.58;102071.59;5033700;28;45401;-68
2022/07/12 09:03:13;;;;;;;;;2.00;2.00;;;;;32.43;35.07;102062.25;5051163;28;45430;-68
2022/07/12 09:05:48;;;;;;;;;2.33;2.33;;;;;32.51;34.95;102069.38;5049996;28;45392;-67
2022/07/12 09:08:13;;;;;;;;;5.00;5.00;;;;;32.36;34.43;102065.28;5042319;28;45374;-68
2022/07/12 09:10:54;;;;;;;;;6.67;6.67;;;;;32.59;35.52;102066.94;5050566;28;45680;-68
2022/07/12 09:13:20;;;;;;;;;7.00;7.00;;;;;32.81;33.71;102064.97;5030643;28;45492;-68
2022/07/12 09:15:47;;;;;;;;;6.00;4.67;;;;;32.39;34.77;102072.31;5050231;28;46254;-68
2022/07/12 09:18:14;;;;;;;;;6.33;6.33;;;;;32.59;34.76;102075.38;5042275;28;45384;-67
2022/07/12 09:20:42;;;;;;;;;9.00;7.00;;;;;32.85;34.22;102062.47;5049665;28;45383;-68
2022/07/12 09:23:11;;;;;;;;;7.33;7.00;;;;;32.47;34.87;102061.44;5037592;28;45480;-68
2022/07/12 09:25:38;;;;;;;;;7.67;7.00;;;;;32.91;34.33;102061.41;5048054;28;46406;-68
2022/07/12 09:28:05;;;;;;;;;7.00;6.00;;;;;33.28;34.14;102069.97;5060984;28;45299;-68
2022/07/12 09:30:31;;;;;;;;;6.67;6.67;;;;;33.43;32.58;102072.06;5051888;28;45212;-68
2022/07/12 09:38:26;;;;;;;;;8.50;8.50;;;;;33.24;31.63;102069.66;5047435;28;45359;-68
2022/07/12 09:40:53;;;;;;;;;4.67;4.67;;;;;33.72;31.57;102076.28;5047392;28;45315;-68
2022/07/12 09:43:19;;;;;;;;;9.00;6.33;;;;;33.83;30.22;102072.41;5050137;28;45411;-68
2022/07/12 09:45:49;;;;;;;;;5.00;5.00;;;;;34.14;30.41;102075.41;5045889;28;45481;-68
2022/07/12 09:48:15;;;;;;;;;10.00;5.67;;;;;34.42;29.27;102062.88;5045276;28;45270;-68
2022/07/12 09:50:46;;;;;;;;;6.33;6.33;;;;;34.74;29.04;102067.25;5044465;28;45352;-69
2022/07/12 09:53:21;;;;;;;;;7.00;6.00;;;;;35.05;27.56;102065.34;5053695;28;45586;-65
2022/07/12 09:55:50;;;;;;;;;6.00;6.00;;;;;35.34;27.68;102065.69;5047654;28;46209;-67
2022/07/12 09:58:25;;;;;;;;;5.67;5.00;;;;;35.48;27.83;102072.44;5045038;28;45354;-68
2022/07/12 10:00:52;;;;;;;;;6.33;4.67;;;;;35.16;26.96;102066.19;5035014;28;45465;-66
2022/07/12 10:03:20;;;;;;;;;7.00;5.00;;;;;35.21;26.93;102083.16;5057513;28;45370;-66
2022/07/12 10:05:46;;;;;;;;;4.00;4.00;;;;;35.49;26.53;102076.97;5049511;28;46409;-67
2022/07/12 10:08:12;;;;;;;;;3.33;3.33;;;;;35.88;26.32;102087.69;5026527;28;45452;-67
2022/07/12 10:10:39;;;;;;;;;4.00;4.00;;;;;35.41;24.71;102077.53;5062668;28;45343;-66
2022/07/12 10:13:06;;;;;;;;;5.00;3.33;;;;;35.88;25.98;102084.88;5051470;28;45217;-66
2022/07/12 10:15:33;;;;;;;;;5.00;5.00;;;;;36.30;24.64;102078.84;5061966;28;46555;-66
2022/07/12 10:18:00;;;;;;;;;5.00;5.00;;;;;35.75;25.23;102079.81;5049450;28;45406;-67
2022/07/12 10:20:27;;;;;;;;;3.67;3.67;;;;;36.19;24.32;102075.19;5053531;28;45622;-67
2022/07/12 10:22:54;;;;;;;;;5.00;5.00;;;;;36.39;23.95;102064.94;5048845;28;45493;-66
2022/07/12 10:25:25;;;;;;;;;5.33;4.33;;;;;36.81;24.36;102073.81;5059849;28;46160;-69
2022/07/12 10:27:51;;;;;;;;;4.00;4.00;;;;;36.98;24.10;102062.06;5046819;28;45462;-66
2022/07/12 10:30:22;;;;;;;;;5.00;5.00;;;;;36.25;23.48;102071.22;5048280;28;45429;-66
2022/07/12 10:32:49;;;;;;;;;4.00;4.00;;;;;36.41;23.59;102068.31;5045262;28;45241;-68
2022/07/12 10:35:23;;;;;;;;;5.67;5.00;;;;;37.11;23.70;102072.78;5048577;28;46954;-66
2022/07/12 10:38:13;;;;;;;;;5.33;4.00;;;;;37.40;23.12;102064.34;5044596;28;45398;-66
2022/07/12 10:40:39;;;;;;;;;6.00;4.00;;;;;35.88;23.29;102067.88;5045674;28;45197;-68
2022/07/12 10:43:04;;;;;;;;;4.50;4.25;;;;;36.40;23.62;102067.47;5058023;28;45171;-68
2022/07/12 10:45:38;;;;;;;;;5.33;5.00;;;;;36.70;23.21;102063.66;5041914;28;46893;-68
2022/07/12 10:48:04;;;;;;;;;5.00;5.00;;;;;37.34;23.40;102065.50;5046688;28;45533;-69
2022/07/12 10:50:44;;;;;;;;;5.00;5.00;;;;;37.78;22.95;102069.09;5048195;28;45440;-69
2022/07/12 10:53:22;;;;;;;;;7.00;7.00;;;;;38.12;21.11;102071.88;5047658;28;45910;-67
2022/07/12 10:56:06;;;;;;;;;4.67;4.67;;;;;38.64;20.58;102069.25;5043609;28;46139;-67
2022/07/12 10:58:34;;;;;;;;;5.33;5.33;;;;;38.68;21.00;102073.16;5035256;28;45563;-67
2022/07/12 11:01:02;;;;;;;;;7.75;6.25;;;;;38.82;20.61;102062.72;5046985;28;45236;-67
2022/07/12 11:03:36;;;;;;;;;9.50;5.25;;;;;39.28;19.94;102066.59;5055817;28;45365;-67
2022/07/12 11:06:07;;;;;;;;;7.75;6.00;;;;;39.13;19.87;102057.44;5042750;28;46802;-68
2022/07/12 11:09:07;;;;;;;;;7.50;7.50;;;;;39.19;18.87;102065.59;5033009;28;45488;-68
2022/07/12 11:11:39;;;;;;;;;7.00;7.00;;;;;38.35;20.04;102067.34;5043416;28;45528;-68
2022/07/12 11:14:06;;;;;;;;;4.50;4.50;;;;;38.43;20.62;102055.28;5041151;28;45497;-67
2022/07/12 11:16:31;;;;;;;;;2.00;2.00;;;;;38.08;19.90;102058.56;5045473;28;46443;-67
2022/07/12 11:18:57;;;;;;;;;4.75;4.75;;;;;38.05;20.19;102056.34;5035544;28;45373;-68
2022/07/12 11:21:24;;;;;;;;;6.50;3.75;;;;;38.67;20.96;102057.28;5042938;28;45315;-67
2022/07/12 11:23:50;;;;;;;;;4.75;4.75;;;;;39.09;18.79;102048.69;5035134;28;45449;-68
2022/07/12 11:26:16;;;;;;;;;2.50;2.50;;;;;39.44;19.36;102054.97;5037690;28;48037;-67